sensor_id;sensor_type;location;lat;lon;timestamp;temperature;humidity
9323;DHT22;4700;48.822;9.270;2022-12-11T02:11:04;0.10;1.00
9323;DHT22;4700;48.822;9.270;2022-12-11T02:30:57;0.30;1.00
9323;DHT22;4700;48.822;9.270;2022-12-11T02:34:01;0.30;1.00
9323;DHT22;4700;48.822;9.270;2022-12-11T02:36:58;0.30;1.00
9323;DHT22;4700;48.822;9.270;2022-12-11T02:39:54;0.30;1.00
9323;DHT22;4700;48.822;9.270;2022-12-11T02:42:42;0.30;1.00
9323;DHT22;4700;48.822;9.270;2022-12-11T02:45:31;0.30;1.00
9323;DHT22;4700;48.822;9.270;2022-12-11T02:48:26;0.40;1.00
9323;DHT22;4700;48.822;9.270;2022-12-11T02:51:22;0.60;1.00
9323;DHT22;4700;48.822;9.270;2022-12-11T02:54:16;0.40;1.00
9323;DHT22;4700;48.822;9.270;2022-12-11T02:57:08;0.50;1.00
9323;DHT22;4700;48.822;9.270;2022-12-11T02:59:59;0.30;1.00
9323;DHT22;4700;48.822;9.270;2022-12-11T03:02:45;0.30;1.00
9323;DHT22;4700;48.822;9.270;2022-12-11T03:05:35;0.30;1.00
9323;DHT22;4700;48.822;9.270;2022-12-11T03:08:21;0.30;1.00
9323;DHT22;4700;48.822;9.270;2022-12-11T03:11:09;0.30;1.00
9323;DHT22;4700;48.822;9.270;2022-12-11T03:14:04;0.30;1.00
9323;DHT22;4700;48.822;9.270;2022-12-11T03:16:57;0.30;1.00
9323;DHT22;4700;48.822;9.270;2022-12-11T03:19:54;1.00;1.00
9323;DHT22;4700;48.822;9.270;2022-12-11T03:22:51;0.40;1.00
9323;DHT22;4700;48.822;9.270;2022-12-11T03:25:46;0.40;1.00
9323;DHT22;4700;48.822;9.270;2022-12-11T03:28:46;0.90;1.00
9323;DHT22;4700;48.822;9.270;2022-12-11T03:31:39;0.30;1.00
9323;DHT22;4700;48.822;9.270;2022-12-11T03:34:43;0.20;1.00
9323;DHT22;4700;48.822;9.270;2022-12-11T03:38:07;0.80;1.00
9323;DHT22;4700;48.822;9.270;2022-12-11T03:41:13;0.10;1.00
9323;DHT22;4700;48.822;9.270;2022-12-11T03:44:03;0.10;1.00
9323;DHT22;4700;48.822;9.270;2022-12-11T03:46:56;0.10;1.00
9323;DHT22;4700;48.822;9.270;2022-12-11T03:49:58;-0.20;1.00
9323;DHT22;4700;48.822;9.270;2022-12-11T03:52:50;0.20;1.00
9323;DHT22;4700;48.822;9.270;2022-12-11T03:55:45;0.10;1.00
9323;DHT22;4700;48.822;9.270;2022-12-11T03:58:34;0.40;1.00
9323;DHT22;4700;48.822;9.270;2022-12-11T04:01:23;0.10;1.00
9323;DHT22;4700;48.822;9.270;2022-12-11T04:04:10;0.20;1.00
9323;DHT22;4700;48.822;9.270;2022-12-11T04:06:59;0.00;1.00
9323;DHT22;4700;48.822;9.270;2022-12-11T04:09:50;0.10;1.00
9323;DHT22;4700;48.822;9.270;2022-12-11T04:12:50;0.10;1.00
9323;DHT22;4700;48.822;9.270;2022-12-11T04:15:47;0.00;1.00
9323;DHT22;4700;48.822;9.270;2022-12-11T04:18:39;0.00;1.00
9323;DHT22;4700;48.822;9.270;2022-12-11T04:21:55;-0.10;1.00
9323;DHT22;4700;48.822;9.270;2022-12-11T04:24:59;0.60;1.00
9323;DHT22;4700;48.822;9.270;2022-12-11T04:28:07;0.50;1.00
9323;DHT22;4700;48.822;9.270;2022-12-11T04:31:11;-0.20;1.00
9323;DHT22;4700;48.822;9.270;2022-12-11T04:34:14;-0.20;1.00
9323;DHT22;4700;48.822;9.270;2022-12-11T04:37:08;-0.10;1.00
9323;DHT22;4700;48.822;9.270;2022-12-11T04:40:13;-0.20;1.00
9323;DHT22;4700;48.822;9.270;2022-12-11T04:50:34;-0.20;1.00
9323;DHT22;4700;48.822;9.270;2022-12-11T04:53:42;-0.20;1.00
9323;DHT22;4700;48.822;9.270;2022-12-11T05:02:48;-0.30;1.00
9323;DHT22;4700;48.822;9.270;2022-12-11T05:09:29;-0.30;1.00
9323;DHT22;4700;48.822;9.270;2022-12-11T05:12:36;-0.30;1.00
9323;DHT22;4700;48.822;9.270;2022-12-11T05:15:40;-0.30;1.00
9323;DHT22;4700;48.822;9.270;2022-12-11T05:18:33;-0.30;1.00
9323;DHT22;4700;48.822;9.270;2022-12-11T05:21:25;-0.30;1.00
9323;DHT22;4700;48.822;9.270;2022-12-11T05:24:16;-0.30;1.00
9323;DHT22;4700;48.822;9.270;2022-12-11T05:27:30;-0.30;1.00
9323;DHT22;4700;48.822;9.270;2022-12-11T05:30:32;-0.30;1.00
9323;DHT22;4700;48.822;9.270;2022-12-11T05:33:36;-0.50;1.00
9323;DHT22;4700;48.822;9.270;2022-12-11T05:36:37;-0.70;1.00
9323;DHT22;4700;48.822;9.270;2022-12-11T05:39:33;0.00;1.00
9323;DHT22;4700;48.822;9.270;2022-12-11T05:42:30;-1.00;1.00
9323;DHT22;4700;48.822;9.270;2022-12-11T06:14:18;-1.10;1.00
9323;DHT22;4700;48.822;9.270;2022-12-11T07:54:39;-0.40;1.00
9323;DHT22;4700;48.822;9.270;2022-12-11T07:57:52;-0.30;1.00
9323;DHT22;4700;48.822;9.270;2022-12-11T08:01:12;-0.20;1.00
9323;DHT22;4700;48.822;9.270;2022-12-11T08:04:48;-0.10;1.00
9323;DHT22;4700;48.822;9.270;2022-12-11T08:07:56;0.00;1.00
9323;DHT22;4700;48.822;9.270;2022-12-11T08:21:41;0.30;1.00
9323;DHT22;4700;48.822;9.270;2022-12-11T08:24:27;0.40;1.00
9323;DHT22;4700;48.822;9.270;2022-12-11T08:27:14;0.90;1.00
9323;DHT22;4700;48.822;9.270;2022-12-11T08:30:05;1.00;1.00
9323;DHT22;4700;48.822;9.270;2022-12-11T08:32:56;1.00;1.00
9323;DHT22;4700;48.822;9.270;2022-12-11T08:35:44;1.00;1.00
9323;DHT22;4700;48.822;9.270;2022-12-11T08:38:51;1.00;1.00
9323;DHT22;4700;48.822;9.270;2022-12-11T08:41:58;1.00;1.00
9323;DHT22;4700;48.822;9.270;2022-12-11T08:45:02;0.70;1.00
9323;DHT22;4700;48.822;9.270;2022-12-11T08:48:11;0.60;1.00
9323;DHT22;4700;48.822;9.270;2022-12-11T08:51:27;0.40;1.00
9323;DHT22;4700;48.822;9.270;2022-12-11T08:54:37;0.30;1.00
9323;DHT22;4700;48.822;9.270;2022-12-11T08:57:30;0.40;1.00
9323;DHT22;4700;48.822;9.270;2022-12-11T09:00:21;0.50;1.00
9323;DHT22;4700;48.822;9.270;2022-12-11T09:03:08;0.60;1.00
9323;DHT22;4700;48.822;9.270;2022-12-11T09:05:57;0.60;1.00
9323;DHT22;4700;48.822;9.270;2022-12-11T09:08:57;0.70;1.00
9323;DHT22;4700;48.822;9.270;2022-12-11T09:12:29;0.80;1.00
9323;DHT22;4700;48.822;9.270;2022-12-11T09:15:38;0.80;1.00
9323;DHT22;4700;48.822;9.270;2022-12-11T09:19:06;0.90;1.00
9323;DHT22;4700;48.822;9.270;2022-12-11T09:22:17;1.00;1.00
9323;DHT22;4700;48.822;9.270;2022-12-11T09:25:21;1.00;1.00
9323;DHT22;4700;48.822;9.270;2022-12-11T09:28:23;1.10;1.00
9323;DHT22;4700;48.822;9.270;2022-12-11T09:31:22;1.20;1.00
9323;DHT22;4700;48.822;9.270;2022-12-11T09:34:11;1.40;1.00
9323;DHT22;4700;48.822;9.270;2022-12-11T09:36:58;1.50;1.00
9323;DHT22;4700;48.822;9.270;2022-12-11T09:39:48;1.60;1.00
9323;DHT22;4700;48.822;9.270;2022-12-11T09:42:46;1.60;1.00
9323;DHT22;4700;48.822;9.270;2022-12-11T09:45:41;1.70;1.00
9323;DHT22;4700;48.822;9.270;2022-12-11T09:48:32;1.90;1.00
9323;DHT22;4700;48.822;9.270;2022-12-11T09:51:23;2.00;1.00
9323;DHT22;4700;48.822;9.270;2022-12-11T09:54:13;2.10;1.00
9323;DHT22;4700;48.822;9.270;2022-12-11T09:57:09;2.10;1.00
9323;DHT22;4700;48.822;9.270;2022-12-11T10:00:11;2.40;1.00
9323;DHT22;4700;48.822;9.270;2022-12-11T10:03:33;2.00;1.00
9323;DHT22;4700;48.822;9.270;2022-12-11T10:06:32;1.80;1.00
9323;DHT22;4700;48.822;9.270;2022-12-11T10:09:41;1.70;1.00
9323;DHT22;4700;48.822;9.270;2022-12-11T10:13:10;1.60;1.00
9323;DHT22;4700;48.822;9.270;2022-12-11T10:16:31;1.60;1.00
9323;DHT22;4700;48.822;9.270;2022-12-11T10:19:39;1.70;1.00
9323;DHT22;4700;48.822;9.270;2022-12-11T10:22:30;1.90;1.00
9323;DHT22;4700;48.822;9.270;2022-12-11T10:25:24;2.20;1.00
9323;DHT22;4700;48.822;9.270;2022-12-11T10:28:14;2.30;1.00
9323;DHT22;4700;48.822;9.270;2022-12-11T10:31:06;2.40;1.00
9323;DHT22;4700;48.822;9.270;2022-12-11T10:33:59;2.70;1.00
9323;DHT22;4700;48.822;9.270;2022-12-11T10:36:49;2.80;1.00
9323;DHT22;4700;48.822;9.270;2022-12-11T10:39:35;2.70;1.00
9323;DHT22;4700;48.822;9.270;2022-12-11T10:42:23;2.70;1.00
9323;DHT22;4700;48.822;9.270;2022-12-11T10:45:17;2.60;1.00
9323;DHT22;4700;48.822;9.270;2022-12-11T10:48:08;2.50;1.00
9323;DHT22;4700;48.822;9.270;2022-12-11T10:50:57;2.40;1.00
9323;DHT22;4700;48.822;9.270;2022-12-11T10:54:01;2.40;1.00
9323;DHT22;4700;48.822;9.270;2022-12-11T10:57:24;2.40;1.00
9323;DHT22;4700;48.822;9.270;2022-12-11T11:00:30;2.30;1.00
9323;DHT22;4700;48.822;9.270;2022-12-11T11:03:32;2.40;1.00
9323;DHT22;4700;48.822;9.270;2022-12-11T11:06:26;2.30;1.00
9323;DHT22;4700;48.822;9.270;2022-12-11T11:13:00;2.10;1.00
9323;DHT22;4700;48.822;9.270;2022-12-11T11:15:49;2.30;1.00
9323;DHT22;4700;48.822;9.270;2022-12-11T11:18:54;2.70;1.00
9323;DHT22;4700;48.822;9.270;2022-12-11T11:21:48;2.60;1.00
9323;DHT22;4700;48.822;9.270;2022-12-11T11:24:40;2.70;1.00
9323;DHT22;4700;48.822;9.270;2022-12-11T11:27:38;2.70;1.00
9323;DHT22;4700;48.822;9.270;2022-12-11T11:30:36;2.80;1.00
9323;DHT22;4700;48.822;9.270;2022-12-11T11:33:28;2.90;1.00
9323;DHT22;4700;48.822;9.270;2022-12-11T11:36:25;2.90;1.00
9323;DHT22;4700;48.822;9.270;2022-12-11T11:39:22;2.70;1.00
9323;DHT22;4700;48.822;9.270;2022-12-11T11:42:23;2.70;1.00
9323;DHT22;4700;48.822;9.270;2022-12-11T11:45:16;2.70;1.00
9323;DHT22;4700;48.822;9.270;2022-12-11T11:48:30;2.60;1.00
9323;DHT22;4700;48.822;9.270;2022-12-11T11:51:29;2.30;1.00
9323;DHT22;4700;48.822;9.270;2022-12-11T11:54:32;2.20;1.00
9323;DHT22;4700;48.822;9.270;2022-12-11T11:57:28;2.20;1.00
9323;DHT22;4700;48.822;9.270;2022-12-11T12:00:22;2.20;1.00
9323;DHT22;4700;48.822;9.270;2022-12-11T12:03:12;2.30;1.00
9323;DHT22;4700;48.822;9.270;2022-12-11T12:06:09;2.40;1.00
9323;DHT22;4700;48.822;9.270;2022-12-11T12:09:07;2.40;1.00
9323;DHT22;4700;48.822;9.270;2022-12-11T12:12:10;2.40;1.00
9323;DHT22;4700;48.822;9.270;2022-12-11T12:15:16;2.40;1.00
9323;DHT22;4700;48.822;9.270;2022-12-11T12:18:12;2.40;1.00
9323;DHT22;4700;48.822;9.270;2022-12-11T12:21:14;2.50;1.00
9323;DHT22;4700;48.822;9.270;2022-12-11T12:24:17;2.50;1.00
9323;DHT22;4700;48.822;9.270;2022-12-11T12:27:18;2.60;1.00
9323;DHT22;4700;48.822;9.270;2022-12-11T12:30:13;2.60;1.00
9323;DHT22;4700;48.822;9.270;2022-12-11T12:33:16;2.50;1.00
9323;DHT22;4700;48.822;9.270;2022-12-11T12:36:17;2.60;1.00
9323;DHT22;4700;48.822;9.270;2022-12-11T12:39:16;2.50;1.00
9323;DHT22;4700;48.822;9.270;2022-12-11T12:42:14;2.50;1.00
9323;DHT22;4700;48.822;9.270;2022-12-11T12:45:14;2.50;1.00
9323;DHT22;4700;48.822;9.270;2022-12-11T12:48:03;2.40;1.00
9323;DHT22;4700;48.822;9.270;2022-12-11T12:50:52;2.30;1.00
9323;DHT22;4700;48.822;9.270;2022-12-11T12:53:52;2.20;1.00
9323;DHT22;4700;48.822;9.270;2022-12-11T12:56:40;2.10;1.00
9323;DHT22;4700;48.822;9.270;2022-12-11T12:59:30;2.00;1.00
9323;DHT22;4700;48.822;9.270;2022-12-11T13:02:12;2.40;1.00
9323;DHT22;4700;48.822;9.270;2022-12-11T13:05:20;1.60;1.00
9323;DHT22;4700;48.822;9.270;2022-12-11T13:08:11;1.50;1.00
9323;DHT22;4700;48.822;9.270;2022-12-11T13:11:08;1.50;1.00
9323;DHT22;4700;48.822;9.270;2022-12-11T13:14:02;1.40;1.00
9323;DHT22;4700;48.822;9.270;2022-12-11T13:17:35;1.20;1.00
9323;DHT22;4700;48.822;9.270;2022-12-11T13:20:47;1.20;1.00
9323;DHT22;4700;48.822;9.270;2022-12-11T13:23:40;1.10;1.00
9323;DHT22;4700;48.822;9.270;2022-12-11T13:26:32;1.20;1.00
9323;DHT22;4700;48.822;9.270;2022-12-11T13:29:31;1.30;1.00
9323;DHT22;4700;48.822;9.270;2022-12-11T13:32:29;1.30;1.00
9323;DHT22;4700;48.822;9.270;2022-12-11T13:35:17;1.30;1.00
9323;DHT22;4700;48.822;9.270;2022-12-11T13:38:07;1.40;1.00
9323;DHT22;4700;48.822;9.270;2022-12-11T13:41:00;1.40;1.00
9323;DHT22;4700;48.822;9.270;2022-12-11T13:43:58;1.50;1.00
9323;DHT22;4700;48.822;9.270;2022-12-11T13:46:47;1.40;1.00
9323;DHT22;4700;48.822;9.270;2022-12-11T13:49:52;1.40;1.00
9323;DHT22;4700;48.822;9.270;2022-12-11T13:52:52;1.30;1.00
9323;DHT22;4700;48.822;9.270;2022-12-11T13:55:44;1.30;1.00
9323;DHT22;4700;48.822;9.270;2022-12-11T13:58:34;1.30;1.00
9323;DHT22;4700;48.822;9.270;2022-12-11T14:01:24;1.40;1.00
9323;DHT22;4700;48.822;9.270;2022-12-11T14:04:18;1.40;1.00
9323;DHT22;4700;48.822;9.270;2022-12-11T14:07:08;1.50;1.00
9323;DHT22;4700;48.822;9.270;2022-12-11T14:10:00;1.60;1.00
9323;DHT22;4700;48.822;9.270;2022-12-11T14:12:56;1.70;1.00
9323;DHT22;4700;48.822;9.270;2022-12-11T14:15:45;2.10;1.00
9323;DHT22;4700;48.822;9.270;2022-12-11T14:18:40;0.90;1.00
9323;DHT22;4700;48.822;9.270;2022-12-11T14:21:26;1.00;1.00
9323;DHT22;4700;48.822;9.270;2022-12-11T14:24:12;1.00;1.00
9323;DHT22;4700;48.822;9.270;2022-12-11T14:26:59;1.00;1.00
9323;DHT22;4700;48.822;9.270;2022-12-11T14:29:50;0.80;1.00
9323;DHT22;4700;48.822;9.270;2022-12-11T14:32:42;1.40;1.00
9323;DHT22;4700;48.822;9.270;2022-12-11T14:35:39;0.80;1.00
9323;DHT22;4700;48.822;9.270;2022-12-11T14:38:31;0.00;1.00
9323;DHT22;4700;48.822;9.270;2022-12-11T14:41:22;0.20;1.00
9323;DHT22;4700;48.822;9.270;2022-12-11T14:52:10;0.20;1.00
9323;DHT22;4700;48.822;9.270;2022-12-11T14:55:04;0.30;1.00
9323;DHT22;4700;48.822;9.270;2022-12-11T14:57:56;0.50;1.00
9323;DHT22;4700;48.822;9.270;2022-12-11T15:00:56;0.10;1.00
9323;DHT22;4700;48.822;9.270;2022-12-11T15:03:49;0.10;1.00
9323;DHT22;4700;48.822;9.270;2022-12-11T15:06:42;-0.10;1.00
9323;DHT22;4700;48.822;9.270;2022-12-11T15:09:37;0.80;1.00
9323;DHT22;4700;48.822;9.270;2022-12-11T15:12:26;-0.30;1.00
9323;DHT22;4700;48.822;9.270;2022-12-11T15:15:16;0.50;1.00
9323;DHT22;4700;48.822;9.270;2022-12-11T15:23:13;-0.30;1.00
9323;DHT22;4700;48.822;9.270;2022-12-11T15:26:09;-0.30;1.00
9323;DHT22;4700;48.822;9.270;2022-12-11T15:29:03;-0.10;1.00
9323;DHT22;4700;48.822;9.270;2022-12-11T15:31:58;-0.40;1.00
9323;DHT22;4700;48.822;9.270;2022-12-11T15:34:47;-0.50;1.00
9323;DHT22;4700;48.822;9.270;2022-12-11T15:37:34;-0.60;1.00
9323;DHT22;4700;48.822;9.270;2022-12-11T15:40:26;-0.60;1.00
9323;DHT22;4700;48.822;9.270;2022-12-11T15:43:20;-0.70;1.00
9323;DHT22;4700;48.822;9.270;2022-12-11T16:04:19;-0.10;1.00
9323;DHT22;4700;48.822;9.270;2022-12-11T16:07:14;-0.30;1.00
9323;DHT22;4700;48.822;9.270;2022-12-11T16:10:00;-0.30;1.00
9323;DHT22;4700;48.822;9.270;2022-12-11T16:20:36;-0.40;1.00
9323;DHT22;4700;48.822;9.270;2022-12-11T16:23:36;-0.40;1.00
9323;DHT22;4700;48.822;9.270;2022-12-11T16:26:25;-0.30;1.00
9323;DHT22;4700;48.822;9.270;2022-12-11T16:29:13;-0.30;1.00
9323;DHT22;4700;48.822;9.270;2022-12-11T16:31:59;-0.40;1.00
9323;DHT22;4700;48.822;9.270;2022-12-11T16:34:45;-0.20;1.00
9323;DHT22;4700;48.822;9.270;2022-12-11T16:37:39;-0.40;1.00
9323;DHT22;4700;48.822;9.270;2022-12-11T16:40:25;-0.40;1.00
9323;DHT22;4700;48.822;9.270;2022-12-11T16:43:14;-0.40;1.00
9323;DHT22;4700;48.822;9.270;2022-12-11T16:46:01;-0.30;1.00
9323;DHT22;4700;48.822;9.270;2022-12-11T16:48:49;-0.30;1.00
9323;DHT22;4700;48.822;9.270;2022-12-11T16:51:36;-0.30;1.00
9323;DHT22;4700;48.822;9.270;2022-12-11T16:54:27;-0.30;1.00
9323;DHT22;4700;48.822;9.270;2022-12-11T16:57:19;-0.30;1.00
9323;DHT22;4700;48.822;9.270;2022-12-11T17:00:09;-0.30;1.00
9323;DHT22;4700;48.822;9.270;2022-12-11T17:02:57;-0.40;1.00
9323;DHT22;4700;48.822;9.270;2022-12-11T17:05:43;-0.50;1.00
9323;DHT22;4700;48.822;9.270;2022-12-11T17:08:31;-0.50;1.00
9323;DHT22;4700;48.822;9.270;2022-12-11T17:11:22;-0.50;1.00
9323;DHT22;4700;48.822;9.270;2022-12-11T17:14:13;-0.60;1.00
9323;DHT22;4700;48.822;9.270;2022-12-11T17:31:02;-0.40;1.00
9323;DHT22;4700;48.822;9.270;2022-12-11T17:34:02;-0.40;1.00
9323;DHT22;4700;48.822;9.270;2022-12-11T17:36:57;-0.40;1.00
9323;DHT22;4700;48.822;9.270;2022-12-11T17:39:54;-0.50;1.00
9323;DHT22;4700;48.822;9.270;2022-12-11T17:50:42;-0.50;1.00
9323;DHT22;4700;48.822;9.270;2022-12-11T17:53:30;-0.50;1.00
9323;DHT22;4700;48.822;9.270;2022-12-11T18:09:21;-0.30;1.00
9323;DHT22;4700;48.822;9.270;2022-12-11T18:12:08;-0.30;1.00
9323;DHT22;4700;48.822;9.270;2022-12-11T18:14:58;-0.40;1.00
9323;DHT22;4700;48.822;9.270;2022-12-11T18:17:48;-0.60;1.00
9323;DHT22;4700;48.822;9.270;2022-12-11T18:20:49;-0.70;1.00
9323;DHT22;4700;48.822;9.270;2022-12-11T18:26:36;-1.00;1.00
9323;DHT22;4700;48.822;9.270;2022-12-11T18:40:04;-1.10;1.00
9323;DHT22;4700;48.822;9.270;2022-12-11T19:56:05;-1.20;1.00
9323;DHT22;4700;48.822;9.270;2022-12-11T20:38:08;-0.30;1.00
9323;DHT22;4700;48.822;9.270;2022-12-11T20:41:18;-0.30;1.00
9323;DHT22;4700;48.822;9.270;2022-12-11T20:44:17;-0.30;1.00
9323;DHT22;4700;48.822;9.270;2022-12-11T20:47:28;-0.30;1.00
9323;DHT22;4700;48.822;9.270;2022-12-11T20:50:38;-0.20;1.00
9323;DHT22;4700;48.822;9.270;2022-12-11T20:57:26;0.50;1.00
9323;DHT22;4700;48.822;9.270;2022-12-11T21:03:10;-0.20;1.00
9323;DHT22;4700;48.822;9.270;2022-12-11T21:06:16;-0.20;1.00
9323;DHT22;4700;48.822;9.270;2022-12-11T21:09:29;-0.20;1.00
9323;DHT22;4700;48.822;9.270;2022-12-11T21:30:33;-0.20;1.00
9323;DHT22;4700;48.822;9.270;2022-12-11T21:34:21;-0.70;1.00
9323;DHT22;4700;48.822;9.270;2022-12-11T21:37:57;-0.30;1.00
9323;DHT22;4700;48.822;9.270;2022-12-11T21:41:22;-0.20;1.00
9323;DHT22;4700;48.822;9.270;2022-12-11T21:44:23;-0.10;1.00
9323;DHT22;4700;48.822;9.270;2022-12-11T21:47:49;-0.30;1.00
9323;DHT22;4700;48.822;9.270;2022-12-11T21:51:07;-0.20;1.00
9323;DHT22;4700;48.822;9.270;2022-12-11T21:54:26;-0.60;1.00
9323;DHT22;4700;48.822;9.270;2022-12-11T21:57:26;-0.10;1.00
9323;DHT22;4700;48.822;9.270;2022-12-11T22:00:30;-0.10;1.00
9323;DHT22;4700;48.822;9.270;2022-12-11T22:04:01;-0.10;1.00
9323;DHT22;4700;48.822;9.270;2022-12-11T22:07:04;-0.10;1.00
9323;DHT22;4700;48.822;9.270;2022-12-11T22:10:09;0.50;1.00
9323;DHT22;4700;48.822;9.270;2022-12-11T22:13:17;-0.10;1.00
9323;DHT22;4700;48.822;9.270;2022-12-11T22:16:19;-0.10;1.00
9323;DHT22;4700;48.822;9.270;2022-12-11T22:19:49;-0.10;1.00
9323;DHT22;4700;48.822;9.270;2022-12-11T22:23:06;0.00;1.00
9323;DHT22;4700;48.822;9.270;2022-12-11T22:26:16;-0.10;1.00
9323;DHT22;4700;48.822;9.270;2022-12-11T22:29:35;-0.20;1.00
9323;DHT22;4700;48.822;9.270;2022-12-11T22:32:36;-0.10;1.00
9323;DHT22;4700;48.822;9.270;2022-12-11T22:35:44;-0.20;1.00
9323;DHT22;4700;48.822;9.270;2022-12-11T22:38:55;0.10;1.00
9323;DHT22;4700;48.822;9.270;2022-12-11T22:42:17;-0.10;1.00
9323;DHT22;4700;48.822;9.270;2022-12-11T22:45:31;-0.10;1.00
9323;DHT22;4700;48.822;9.270;2022-12-11T22:48:55;0.00;1.00
9323;DHT22;4700;48.822;9.270;2022-12-11T23:02:46;-0.20;1.00
9323;DHT22;4700;48.822;9.270;2022-12-11T23:08:58;-0.20;1.00
9323;DHT22;4700;48.822;9.270;2022-12-11T23:12:13;-0.30;1.00
9323;DHT22;4700;48.822;9.270;2022-12-11T23:15:32;-0.30;1.00
9323;DHT22;4700;48.822;9.270;2022-12-11T23:22:30;-0.20;1.00
9323;DHT22;4700;48.822;9.270;2022-12-11T23:25:56;-0.20;1.00
9323;DHT22;4700;48.822;9.270;2022-12-11T23:29:09;-0.20;1.00
9323;DHT22;4700;48.822;9.270;2022-12-11T23:32:19;-0.20;1.00
9323;DHT22;4700;48.822;9.270;2022-12-11T23:35:24;-0.20;1.00
9323;DHT22;4700;48.822;9.270;2022-12-11T23:38:30;0.30;1.00
9323;DHT22;4700;48.822;9.270;2022-12-11T23:41:21;-0.20;1.00
9323;DHT22;4700;48.822;9.270;2022-12-11T23:44:09;-0.10;1.00
9323;DHT22;4700;48.822;9.270;2022-12-11T23:47:11;-0.40;1.00
9323;DHT22;4700;48.822;9.270;2022-12-11T23:49:58;-0.10;1.00
9323;DHT22;4700;48.822;9.270;2022-12-11T23:52:47;-0.10;1.00
9323;DHT22;4700;48.822;9.270;2022-12-11T23:55:50;-0.10;1.00
9323;DHT22;4700;48.822;9.270;2022-12-11T23:58:43;-0.10;1.00
